Latest Weather Observations for Redcliffe

IDQ60801

Issued at 9:05 pm EST Saturday 23 August 2014 (issued every 30 minutes, with the page automatically refreshed every 10 minutes)

About weather observations | Map of weather stations | Latest weather observations for QLD | Other Formats
Station Details ID: 040958 Name: REDCLIFFE Lat: -27.22 Lon: 153.09 Height: 12.6 m
Data from the previous 72 hours. | See also: Recent months at Redcliffe
Date/Time
EST
Temp
°C
App
Temp
°C
Dew
Point
Rel
Hum
%
Delta-T
°C
Wind Press
QNH
hPa
Press
MSL
hPa
Rain
since 9 am
mm
Dir
 
Spd
km/h
Gust
km/h
Spd
kts
Gust
kts
23/09:00pm 13.8 10.5 11.7 87 1.1 SSW 20 32 11 17 1023.4 1023.4 10.6
23/08:30pm 14.3 11.3 12.0 86 1.2 S 19 26 10 14 1023.8 1023.8 10.4
23/08:00pm 14.5 13.0 12.0 85 1.3 S 11 15 6 8 1023.7 1023.7 10.2
23/07:30pm 14.4 12.3 12.3 87 1.1 SSW 15 20 8 11 1023.5 1023.5 10.2
23/07:00pm 14.6 11.6 12.6 88 1.1 SSW 20 28 11 15 1023.2 1023.2 10.2
23/06:30pm 14.7 10.7 12.9 89 1.0 S 26 35 14 19 1023.2 1023.2 10.2
23/06:00pm 14.9 10.6 13.1 89 1.0 S 28 41 15 22 1022.9 1022.9 10.2
23/05:30pm 14.8 8.8 13.2 90 0.9 S 37 46 20 25 1022.6 1022.6 10.2
23/05:00pm 14.7 7.9 13.2 91 0.8 SSE 41 50 22 27 1022.5 1022.5 9.8
23/04:30pm 15.2 8.2 13.6 90 0.9 S 43 52 23 28 1022.1 1022.1 9.0
23/04:00pm 14.7 9.0 13.1 90 0.9 S 35 44 19 24 1021.8 1021.8 8.6
23/03:30pm 14.7 7.3 12.9 89 1.0 S 44 54 24 29 1021.6 1021.6 7.0
23/03:00pm 15.0 8.1 12.9 87 1.2 S 41 50 22 27 1021.6 1021.6 5.6
23/02:30pm 15.4 9.5 13.6 89 1.0 S 37 43 20 23 1021.7 1021.7 5.0
23/02:00pm 16.0 10.6 14.0 88 1.1 S 35 41 19 22 1021.7 1021.7 4.6
23/01:30pm 15.8 9.1 13.5 86 1.3 SSE 41 50 22 27 1021.7 1021.7 4.4
23/01:00pm 15.7 8.8 13.9 89 1.0 SSE 43 52 23 28 1021.7 1021.7 4.0
23/12:30pm 14.9 7.7 13.1 89 1.0 S 43 52 23 28 1022.2 1022.2 3.6
23/12:00pm 15.3 7.6 13.3 88 1.1 S 46 56 25 30 1022.3 1022.3 2.2
23/11:30am 15.7 8.1 13.7 88 1.1 S 46 54 25 29 1022.4 1022.4 1.6
23/11:00am 15.8 10.4 14.0 89 1.0 S 35 43 19 23 1022.7 1022.7 0.8
23/10:30am 15.7 10.3 13.9 89 1.0 S 35 44 19 24 1022.8 1022.8 0.4
23/10:00am 15.6 11.9 13.8 89 1.0 SSW 26 35 14 19 1022.9 1022.9 0.2
23/09:30am 15.2 11.7 13.4 89 1.0 SSW 24 35 13 19 1023.1 1023.1 0.0
23/09:00am 15.0 11.4 13.2 89 1.0 SSW 24 33 13 18 1023.2 1023.2 40.6
23/08:30am 14.6 11.7 12.8 89 1.0 SSW 20 32 11 17 1023.0 1023.0 40.4
23/08:00am 14.1 10.8 12.7 91 0.8 SSW 22 28 12 15 1022.8 1022.8 40.2
23/07:30am 13.9 10.1 12.5 91 0.8 SSW 24 30 13 16 1022.6 1022.6 39.8
23/07:00am 13.9 9.7 12.5 91 0.8 SSW 26 33 14 18 1022.3 1022.3 38.4
23/06:30am 13.7 9.9 12.3 91 0.8 SSW 24 32 13 17 1021.9 1021.9 38.2
23/06:00am 13.8 9.9 12.2 90 0.9 SSW 24 30 13 16 1021.8 1021.8 36.6
23/05:30am 14.0 9.7 12.2 89 1.0 S 26 43 14 23 1021.5 1021.5 36.2
23/05:00am 14.0 9.7 12.2 89 1.0 SSW 26 33 14 18 1021.3 1021.3 35.8
23/04:30am 13.9 10.0 12.1 89 1.0 SSW 24 33 13 18 1021.1 1021.1 35.6
23/04:00am 13.9 11.0 12.3 90 0.9 SSW 19 26 10 14 1021.0 1021.0 35.4
23/03:30am 13.9 11.1 12.5 91 0.8 SSW 19 30 10 16 1021.5 1021.5 35.2
23/03:00am 13.9 11.1 12.5 91 0.8 SSW 19 28 10 15 1021.9 1021.9 34.8
23/02:30am 13.9 10.9 12.5 91 0.8 SSW 20 28 11 15 1022.2 1022.2 34.2
23/02:00am 13.9 11.1 12.6 92 0.7 SSW 19 28 10 15 1022.6 1022.6 33.6
23/01:30am 13.9 10.5 12.6 92 0.7 SSW 22 35 12 19 1023.1 1023.1 33.4
23/01:00am 13.8 11.4 12.5 92 0.7 SW 17 26 9 14 1023.4 1023.4 30.8
23/12:30am 13.9 11.1 12.5 91 0.8 SSW 19 26 10 14 1023.6 1023.6 28.8
23/12:00am 14.0 10.3 12.7 92 0.7 SSW 24 33 13 18 1023.4 1023.4 27.8
 
Date/Time
EST
Temp
°C
App
Temp
°C
Dew
Point
Rel
Hum
%
Delta-T
°C
Wind Press
QNH
hPa
Press
MSL
hPa
Rain
since 9 am
mm
Dir
 
Spd
km/h
Gust
km/h
Spd
kts
Gust
kts
22/11:30pm 14.0 11.0 12.6 91 0.8 SSW 20 30 11 16 1023.6 1023.6 26.6
22/11:00pm 14.0 10.3 12.6 91 0.8 SSW 24 35 13 19 1023.8 1023.8 26.2
22/10:30pm 14.0 10.6 12.6 91 0.8 SSW 22 30 12 16 1024.0 1024.0 25.0
22/10:00pm 14.0 10.6 12.6 91 0.8 SSW 22 30 12 16 1024.1 1024.1 23.2
22/09:30pm 14.2 11.5 12.8 91 0.8 S 19 28 10 15 1024.2 1024.2 22.4
22/09:00pm 14.2 11.2 12.6 90 0.9 SSW 20 30 11 16 1024.1 1024.1 21.0
22/08:30pm 14.3 11.3 12.7 90 0.9 SSW 20 30 11 16 1024.2 1024.2 19.8
22/08:00pm 14.5 11.5 12.7 89 1.0 SSW 20 30 11 16 1024.5 1024.5 19.0
22/07:30pm 14.5 11.2 12.7 89 1.0 SSW 22 32 12 17 1024.1 1024.1 18.2
22/07:00pm 14.5 11.6 12.9 90 0.9 SSW 20 30 11 16 1024.1 1024.1 17.8
22/06:30pm 14.5 10.0 12.7 89 1.0 S 28 35 15 19 1023.7 1023.7 17.0
22/06:00pm 14.8 10.1 13.2 90 0.9 S 30 39 16 21 1023.9 1023.9 16.2
22/05:30pm 14.9 11.8 13.4 91 0.8 S 22 30 12 16 1023.6 1023.6 15.4
22/05:00pm 15.0 10.0 13.4 90 0.9 S 32 39 17 21 1023.2 1023.2 14.8
22/04:30pm 15.3 10.8 13.7 90 0.9 S 30 37 16 20 1023.0 1023.0 14.4
22/04:00pm 15.3 11.9 13.7 90 0.9 S 24 32 13 17 1022.9 1022.9 12.2
22/03:30pm 15.4 11.3 13.8 90 0.9 S 28 33 15 18 1023.0 1023.0 11.4
22/03:00pm 16.0 11.2 14.0 88 1.1 S 32 37 17 20 1022.8 1022.8 10.2
22/02:30pm 16.0 11.6 14.0 88 1.1 S 30 35 16 19 1023.0 1023.0 9.8
22/02:18pm 16.0 11.4 14.5 91 0.9 S 32 41 17 22 1023.0 1023.0 9.8
22/02:00pm 14.7 12.6 12.4 86 1.2 SE 15 20 8 11 1023.3 1023.3 9.4
22/01:30pm 16.4 12.0 14.1 86 1.3 SSE 30 35 16 19 1023.2 1023.2 6.0
22/01:00pm 16.5 12.8 14.0 85 1.4 SSE 26 32 14 17 1023.7 1023.7 5.4
22/12:30pm 16.4 13.1 13.9 85 1.4 SSE 24 30 13 16 1024.0 1024.0 5.4
22/12:00pm 16.2 12.8 13.7 85 1.4 SSE 24 28 13 15 1024.5 1024.5 5.4
22/11:30am 15.7 11.7 14.1 90 0.9 SSE 28 30 15 16 1025.1 1025.1 5.2
22/11:00am 15.6 14.0 14.0 90 0.9 S 15 19 8 10 1025.5 1025.5 3.8
22/10:30am 15.5 12.0 13.3 87 1.2 S 24 32 13 17 1026.0 1026.0 0.8
22/10:00am 15.9 13.8 13.6 86 1.3 S 17 24 9 13 1025.9 1025.9 0.2
22/09:30am 15.5 12.7 13.3 87 1.2 S 20 30 11 16 1026.0 1026.0 0.2
22/09:00am 15.4 11.1 13.2 87 1.2 S 28 32 15 17 1025.8 1025.8 1.0
22/08:30am 14.8 9.6 12.7 87 1.2 S 32 35 17 19 1025.4 1025.4 0.8
22/08:00am 14.6 10.0 12.3 86 1.2 S 28 35 15 19 1025.1 1025.1 0.8
22/07:30am 14.4 10.9 12.1 86 1.2 S 22 33 12 18 1025.0 1025.0 0.8
22/07:00am 14.3 10.1 12.3 88 1.1 S 26 32 14 17 1024.9 1024.9 0.8
22/06:30am 14.0 11.0 11.9 87 1.1 SSW 19 24 10 13 1024.4 1024.4 0.6
22/06:00am 14.4 10.4 11.9 85 1.3 S 24 30 13 16 1024.2 1024.2 0.4
22/05:30am 15.4 10.3 11.8 79 1.9 S 30 33 16 18 1023.9 1023.9 0.0
22/05:00am 15.6 10.3 11.4 76 2.2 S 30 33 16 18 1023.5 1023.5 0.0
22/04:30am 15.6 10.2 10.8 73 2.5 S 30 33 16 18 1023.0 1023.0 0.0
22/04:00am 15.7 12.1 10.5 71 2.7 S 20 26 11 14 1023.2 1023.2 0.0
22/03:30am 15.4 12.7 10.4 72 2.6 S 15 20 8 11 1023.3 1023.3 0.0
22/03:00am 15.9 13.2 10.4 70 2.9 SSW 15 24 8 13 1023.5 1023.5 0.0
22/02:30am 15.9 11.9 10.4 70 2.9 S 22 28 12 15 1023.7 1023.7 0.0
22/02:00am 15.9 12.2 10.2 69 3.0 SSW 20 28 11 15 1023.4 1023.4 0.0
22/01:30am 15.6 12.2 10.4 71 2.7 SSW 19 26 10 14 1023.5 1023.5 0.0
22/01:00am 15.7 12.1 10.7 72 2.6 SSW 20 30 11 16 1024.0 1024.0 0.0
22/12:30am 15.6 11.4 11.2 75 2.4 S 24 33 13 18 1023.5 1023.5 0.0
22/12:00am 15.6 10.7 11.2 75 2.3 S 28 37 15 20 1023.8 1023.8 0.0
 
Date/Time
EST
Temp
°C
App
Temp
°C
Dew
Point
Rel
Hum
%
Delta-T
°C
Wind Press
QNH
hPa
Press
MSL
hPa
Rain
since 9 am
mm
Dir
 
Spd
km/h
Gust
km/h
Spd
kts
Gust
kts
21/11:30pm 15.7 10.5 11.5 76 2.3 S 30 35 16 19 1023.9 1023.9 0.0
21/11:00pm 15.7 11.0 11.9 78 2.1 S 28 35 15 19 1024.2 1024.2 0.0
21/10:30pm 15.8 12.8 12.4 80 1.9 S 20 28 11 15 1024.5 1024.5 0.0
21/10:00pm 15.8 13.0 12.5 81 1.8 SSW 19 26 10 14 1024.3 1024.3 0.0
21/09:30pm 16.2 12.1 12.7 80 1.9 S 26 37 14 20 1024.4 1024.4 0.0
21/09:00pm 16.5 11.6 12.7 78 2.1 S 30 39 16 21 1024.2 1024.2 0.0
21/08:30pm 16.7 11.1 13.2 80 2.0 SSE 35 43 19 23 1024.0 1024.0 0.0
21/08:00pm 16.7 10.9 12.7 77 2.2 S 35 44 19 24 1023.6 1023.6 0.0
21/07:30pm 16.8 10.7 13.1 79 2.1 SSE 37 44 20 24 1023.2 1023.2 0.0
21/07:00pm 16.9 10.0 12.8 77 2.3 SSE 41 48 22 26 1022.8 1022.8 0.0
21/06:30pm 16.8 10.2 12.7 77 2.3 S 39 44 21 24 1022.9 1022.9 0.0
21/06:00pm 16.3 8.2 12.1 76 2.3 SSE 46 57 25 31 1022.2 1022.2 0.0
21/05:30pm 17.5 10.0 12.2 71 2.9 SSE 43 54 23 29 1021.9 1021.9 0.0
21/05:00pm 18.0 10.4 11.8 67 3.4 SSE 43 52 23 28 1021.7 1021.7 0.0
21/04:30pm 18.3 11.1 11.8 66 3.6 SSE 41 50 22 27 1021.3 1021.3 0.0
21/04:00pm 18.8 10.9 11.6 63 3.9 SSE 44 61 24 33 1020.7 1020.7 0.0
21/03:59pm 18.7 11.0 11.5 63 3.9 SSE 43 61 23 33 1020.6 1020.6 0.0
21/03:30pm 19.2 10.9 11.5 61 4.2 SSE 46 56 25 30 1020.4 1020.4 0.0
21/03:00pm 19.3 11.3 10.6 57 4.7 SSE 43 52 23 28 1020.5 1020.5 0.0
21/02:30pm 19.4 11.6 11.2 59 4.5 SE 43 50 23 27 1020.5 1020.5 0.0
21/02:00pm 19.7 12.9 10.7 56 4.9 SE 37 43 20 23 1020.8 1020.8 0.0
21/01:30pm 19.8 13.2 11.3 58 4.7 SSE 37 44 20 24 1021.0 1021.0 0.0
21/01:00pm 20.1 13.1 11.1 56 4.9 SSE 39 46 21 25 1020.9 1020.9 0.0
21/12:30pm 19.8 13.4 10.8 56 4.9 SE 35 43 19 23 1021.4 1021.4 0.0
21/12:00pm 19.9 13.2 10.9 56 4.9 SSE 37 41 20 22 1022.0 1022.0 0.0
21/11:30am 20.4 15.1 9.9 51 5.6 SSE 28 33 15 18 1022.5 1022.5 0.0
21/11:00am 19.8 13.1 11.0 57 4.8 SSE 37 43 20 23 1022.7 1022.7 0.0
21/10:30am 19.6 13.5 10.6 56 4.9 SSE 33 41 18 22 1022.9 1022.9 0.0
21/10:00am 19.7 15.9 9.9 53 5.2 S 20 24 11 13 1023.1 1023.1 0.0
21/09:30am 18.4 13.9 10.0 58 4.5 S 24 28 13 15 1023.1 1023.1 0.0
21/09:00am 17.8 14.5 9.7 59 4.2 S 17 24 9 13 1023.3 1023.3 0.0
21/08:30am 16.8 13.4 9.2 61 3.9 SSW 17 24 9 13 1023.1 1023.1 0.0
21/08:00am 15.5 12.1 9.2 66 3.2 SSW 17 26 9 14 1023.0 1023.0 0.0
21/07:30am 14.5 9.4 9.1 70 2.8 SSW 26 33 14 18 1022.1 1022.1 0.0
21/07:00am 13.6 9.1 8.7 72 2.5 SSW 22 32 12 17 1022.0 1022.0 0.0
21/06:30am 13.2 9.4 8.9 75 2.2 SSW 19 30 10 16 1022.0 1022.0 0.0
21/06:00am 13.0 9.5 8.9 76 2.1 SSW 17 24 9 13 1022.0 1022.0 0.0
21/05:30am 13.3 9.9 9.2 76 2.1 SSW 17 26 9 14 1021.8 1021.8 0.0
21/05:00am 13.1 10.5 9.4 78 1.9 SSW 13 19 7 10 1021.6 1021.6 0.0
21/04:30am 13.1 10.5 9.4 78 1.9 SSW 13 17 7 9 1021.5 1021.5 0.0
21/04:00am 13.0 10.0 9.3 78 1.9 SSW 15 20 8 11 1021.3 1021.3 0.0
21/03:30am 13.1 10.1 9.2 77 2.0 SSW 15 22 8 12 1021.2 1021.2 0.0
21/03:00am 12.9 10.2 8.8 76 2.0 SW 13 17 7 9 1021.4 1021.4 0.0
21/02:30am 13.2 10.1 8.9 75 2.2 SW 15 19 8 10 1021.5 1021.5 0.0
21/02:00am 13.2 10.4 8.7 74 2.2 SSW 13 17 7 9 1021.6 1021.6 0.0
21/01:30am 13.5 11.2 9.0 74 2.3 SSW 11 15 6 8 1021.7 1021.7 0.0
21/01:00am 13.9 11.2 8.9 72 2.5 SSW 13 17 7 9 1021.9 1021.9 0.0
21/12:30am 14.5 11.9 9.3 71 2.7 SSW 13 19 7 10 1022.0 1022.0 0.0
21/12:00am 15.2 12.4 10.0 71 2.7 SSW 15 20 8 11 1022.0 1022.0 0.0
 
Date/Time
EST
Temp
°C
App
Temp
°C
Dew
Point
Rel
Hum
%
Delta-T
°C
Wind Press
QNH
hPa
Press
MSL
hPa
Rain
since 9 am
mm
Dir
 
Spd
km/h
Gust
km/h
Spd
kts
Gust
kts
20/11:30pm 15.7 11.3 10.5 71 2.7 S 24 30 13 16 1022.1 1022.1 0.0
20/11:00pm 16.1 11.0 10.6 70 2.9 S 28 32 15 17 1022.2 1022.2 0.0
20/10:30pm 16.4 10.9 10.7 69 3.0 S 30 33 16 18 1022.3 1022.3 0.0
20/10:00pm 16.5 11.4 10.6 68 3.1 S 28 33 15 18 1022.3 1022.3 0.0
20/09:30pm 16.9 11.8 10.7 67 3.3 S 28 33 15 18 1022.1 1022.1 0.0

Other Formats:

Comma delimited format used in spreadsheet applications
http://www.bom.gov.au/fwo/IDQ60801/IDQ60801.95591.axf

JavaScript Object Notation format (JSON) in row-major order
http://www.bom.gov.au/fwo/IDQ60801/IDQ60801.95591.json